createdAt,value
2023-01-29T00:04:44.799Z,70.62
2023-01-29T00:12:37.528Z,70.07
2023-01-29T00:18:55.022Z,69.68
2023-01-29T00:23:54.755Z,72.19
2023-01-29T00:28:54.830Z,72.71
2023-01-29T00:33:54.711Z,71.21
2023-01-29T00:38:54.915Z,71.59
2023-01-29T00:43:54.580Z,71.73
2023-01-29T00:50:24.867Z,70.58
2023-01-29T00:55:24.884Z,72.50
2023-01-29T01:00:24.858Z,71.31
2023-01-29T01:05:24.609Z,71.97
2023-01-29T01:10:24.558Z,71.11
2023-01-29T01:15:24.467Z,72.53
2023-01-29T01:20:24.476Z,72.01
2023-01-29T01:25:24.469Z,73.02
2023-01-29T01:30:24.358Z,73.65
2023-01-29T01:35:24.188Z,74.55
2023-01-29T01:40:27.144Z,75.35
2023-01-29T01:45:24.074Z,74.76
2023-01-29T01:50:24.064Z,73.65
2023-01-29T01:55:23.964Z,73.68
2023-01-29T02:00:24.090Z,73.74
2023-01-29T02:05:23.709Z,75.29
2023-01-29T02:10:23.943Z,74.02
2023-01-29T02:15:23.780Z,74.76
2023-01-29T02:20:23.602Z,74.20
2023-01-29T02:25:23.495Z,72.70
2023-01-29T02:30:23.539Z,71.83
2023-01-29T02:35:23.577Z,72.07
2023-01-29T02:40:33.909Z,71.28
2023-01-29T02:45:30.348Z,72.60
2023-01-29T02:50:31.804Z,73.19
2023-01-29T02:55:23.088Z,74.27
2023-01-29T03:00:23.105Z,73.61
2023-01-29T03:05:23.050Z,72.03
2023-01-29T03:10:23.018Z,74.09
2023-01-29T03:15:22.923Z,75.04
2023-01-29T03:20:23.097Z,74.83
2023-01-29T03:25:22.698Z,75.49
2023-01-29T03:30:22.798Z,74.76
2023-01-29T03:35:22.790Z,75.10
2023-01-29T03:42:17.059Z,75.18
2023-01-29T03:49:17.799Z,74.37
2023-01-29T03:54:17.552Z,75.18
2023-01-29T03:59:17.684Z,75.21
2023-01-29T04:04:17.649Z,74.79
2023-01-29T04:09:17.404Z,75.52
2023-01-29T04:14:17.383Z,75.10
2023-01-29T04:23:28.591Z,74.90
2023-01-29T04:38:11.245Z,76.09
2023-01-29T04:43:11.242Z,75.91
2023-01-29T04:48:11.124Z,75.42
2023-01-29T04:53:10.937Z,74.93
2023-01-29T04:58:11.058Z,75.59
2023-01-29T05:03:11.029Z,75.00
2023-01-29T05:34:12.524Z,76.12
2023-01-29T05:39:11.388Z,76.05
2023-01-29T05:44:11.205Z,75.24
2023-01-29T05:49:11.322Z,75.46
2023-01-29T05:54:11.243Z,75.49
2023-01-29T05:59:10.968Z,76.61
2023-01-29T06:04:10.960Z,75.04
2023-01-29T06:09:11.260Z,75.32
2023-01-29T06:14:11.026Z,74.58
2023-01-29T06:19:10.752Z,75.52
2023-01-29T06:24:13.925Z,74.93
2023-01-29T06:29:10.746Z,76.47
2023-01-29T06:34:10.763Z,75.77
2023-01-29T06:39:10.625Z,75.67
2023-01-29T06:46:59.839Z,74.58
2023-01-29T06:51:59.492Z,74.79
2023-01-29T06:56:59.578Z,75.87
2023-01-29T07:01:59.413Z,75.00
2023-01-29T07:06:59.514Z,73.33
2023-01-29T07:11:59.436Z,72.87
2023-01-29T07:16:59.298Z,72.73
2023-01-29T07:21:59.119Z,73.71
2023-01-29T07:26:59.068Z,73.81
2023-01-29T07:31:59.233Z,73.78
2023-01-29T07:37:01.983Z,71.69
2023-01-29T07:41:58.980Z,72.42
2023-01-29T08:00:06.759Z,71.41
2023-01-29T08:08:54.980Z,70.72
2023-01-29T08:18:33.296Z,70.96
2023-01-29T08:23:33.321Z,69.74
2023-01-29T08:29:57.884Z,68.77
2023-01-29T08:36:48.692Z,67.49
2023-01-29T08:43:07.782Z,66.07
2023-01-29T08:48:05.966Z,68.29
2023-01-29T08:53:05.880Z,67.32
2023-01-29T08:58:05.921Z,67.63
2023-01-29T09:08:39.187Z,66.14
2023-01-29T09:15:58.011Z,65.70
2023-01-29T09:20:57.180Z,66.32
2023-01-29T09:25:57.027Z,67.22
2023-01-29T09:30:57.012Z,66.88
2023-01-29T09:35:56.878Z,67.85
2023-01-29T09:42:16.007Z,66.35
2023-01-29T09:47:15.932Z,67.57
2023-01-29T09:52:15.818Z,65.88
2023-01-29T09:57:15.680Z,65.40
2023-01-29T10:02:15.946Z,64.32
2023-01-29T10:07:15.574Z,63.70
2023-01-29T10:12:15.642Z,64.12
2023-01-29T10:17:15.629Z,63.73
2023-01-29T10:22:15.412Z,63.98
2023-01-29T10:27:16.376Z,64.70
2023-01-29T11:15:02.707Z,59.66
2023-01-29T11:24:05.583Z,60.18
2023-01-29T11:29:05.383Z,61.32
2023-01-29T11:34:05.148Z,61.87
2023-01-29T11:39:05.077Z,60.36
2023-01-29T11:44:05.173Z,60.43
2023-01-29T11:49:14.346Z,59.86
2023-01-29T11:54:06.149Z,58.62
2023-01-29T11:59:06.564Z,59.83
2023-01-29T12:04:04.915Z,59.52
2023-01-29T12:09:04.653Z,58.77
2023-01-29T12:14:07.728Z,58.56
2023-01-29T12:19:04.804Z,60.22
2023-01-29T12:59:10.258Z,60.19
2023-01-29T13:08:00.694Z,59.95
2023-01-29T13:16:28.081Z,60.68
2023-01-29T13:26:01.966Z,60.55
2023-01-29T13:33:46.449Z,61.79
2023-01-29T15:12:56.746Z,66.35
2023-01-29T16:36:26.863Z,67.57
2023-01-29T16:47:13.755Z,68.35
2023-01-29T16:52:13.600Z,68.98
2023-01-29T16:57:13.530Z,68.49
2023-01-29T17:02:13.512Z,69.25
2023-01-29T17:07:13.466Z,70.01
2023-01-29T17:55:59.981Z,71.22
2023-01-29T18:06:42.917Z,70.65
2023-01-29T18:11:42.691Z,69.79
2023-01-29T18:16:42.543Z,70.20
2023-01-29T18:26:39.018Z,70.86
2023-01-29T18:34:13.002Z,71.00
2023-01-29T18:41:57.951Z,70.86
2023-01-29T18:46:57.723Z,70.94
2023-01-29T18:53:19.723Z,70.13
2023-01-29T19:02:39.117Z,71.80
2023-01-29T19:07:38.056Z,71.97
2023-01-29T19:12:37.924Z,72.42
2023-01-29T19:18:58.244Z,71.56
2023-01-29T19:23:58.127Z,72.67
2023-01-29T19:28:58.189Z,72.74
2023-01-29T19:33:57.905Z,71.83
2023-01-29T19:38:58.044Z,72.74
2023-01-29T20:05:23.396Z,72.25
2023-01-29T20:11:50.508Z,72.60
2023-01-29T20:19:13.667Z,74.13
2023-01-29T20:25:41.133Z,74.76
2023-01-29T20:30:41.355Z,74.52
2023-01-29T20:37:00.983Z,73.02
2023-01-29T20:42:00.704Z,74.24
2023-01-29T20:47:01.819Z,74.52
2023-01-29T20:52:00.629Z,73.44
2023-01-29T20:57:02.024Z,74.13
2023-01-29T21:02:00.501Z,75.11
2023-01-29T21:07:01.729Z,76.19
2023-01-29T21:12:00.445Z,75.95
2023-01-29T21:17:00.415Z,75.98
2023-01-29T21:22:00.369Z,74.87
2023-01-29T21:27:03.164Z,76.79
2023-01-29T21:32:00.409Z,77.10
2023-01-29T21:37:00.117Z,73.33
2023-01-29T21:45:12.769Z,73.12
2023-01-29T21:50:12.689Z,72.95
2023-01-29T21:55:12.595Z,72.46
2023-01-29T22:00:12.523Z,72.81
2023-01-29T22:05:19.475Z,73.12
2023-01-29T22:10:15.121Z,73.50
2023-01-29T22:15:12.268Z,74.52
2023-01-29T22:20:12.267Z,73.36
2023-01-29T22:25:12.177Z,74.30
2023-01-29T22:30:12.205Z,74.13
2023-01-29T22:35:15.098Z,72.88
2023-01-29T22:40:11.998Z,73.85
2023-01-29T22:45:11.936Z,72.77
2023-01-29T22:50:11.978Z,74.13
2023-01-29T22:55:11.952Z,73.05
2023-01-29T23:00:11.815Z,72.81
2023-01-29T23:05:11.717Z,73.33
2023-01-29T23:10:11.597Z,73.79
2023-01-29T23:15:11.829Z,72.53
2023-01-29T23:20:11.427Z,72.08
2023-01-29T23:25:11.451Z,72.71
2023-01-29T23:30:11.296Z,72.19
2023-01-29T23:35:14.352Z,72.99
2023-01-29T23:40:11.172Z,73.37
2023-01-29T23:45:11.155Z,72.02
2023-01-29T23:50:11.243Z,72.19
2023-01-29T23:55:11.127Z,71.56
